Devonia, Tennessee
Current Conditions -  °F | °C
As of 7:53 PM on Saturday 20 Dec 2014 (Local Time) from KOQT Reporting Station
Clear Clear  
Wind Chill: 40°   Ceiling: Unl
Heat Index: 40°   Visibility: 10mi
Dew Point: 33°   Wind: 0mph
Humidity: 77%   Direction: NA
Pressure: 30.25"   Gusts: NA
Location:  36.1665°N, 84.3051°W
Report Text: KOQT 210053Z AUTO 00000KT 10SM CLR 04/01 A3025 RMK AO2 SLP255 T00440006
Loading
Personal Weather Stations






























Interactive Weather Map New forecast layout! Learn more

10-Day Weather Forecast

Advertisements
Track Severe Weather on mobile